»·PEaware :: FLA91 KPRC-KRDD

FLA91 :: KPRC-KRDD

FLIGHT INFORMATION

Flight Status: Arrived
Operator: Unknown
More flights by this operator :: More flights under this callsign
Pilot: Anonymous 36068 (36068)
Aircraft: BEECH AIRCRAFT PREMIER
(PRM1)
More flights by this aircraft type
Origin: KPRC Love
United States
Destination: KRDD Redding Mun
United States
More flights between these airports :: More routes between these airports
Route: WNSKI2 MUMTE DOVEE Q15 LOMIA RBL
File this flight plan on PilotEdge
Remarks:
Altitude:
(Current/Filed)
36,000ft
Speed:
(Current/Filed)
400kts
Departed: 25-Sep-21 06:16 PM
Arrived: 25-Sep-21 08:07 PM
Distance/Time
Traveled:
586nm/1:51
Distance/Time
To Go:
Arrived

Flight Plot

Page will automatically refresh every two minutes.

Flight plan parsing failed; only flown route is shown


Map Options




Map Legend


Flown Route
Filed Route
Departure Airport
Arrival Airport
Navaid (VOR, NDB)
Fix

Horizontal Profiles

Position Reports

Time Latitude Longitude Heading Altitude Ground
Speed
25-Sep-21 18:14 34.452369 -112.490349 270 16408ft 348kts
25-Sep-21 18:15 34.475190 -112.607591 293 16489ft 364kts
25-Sep-21 18:16 34.535092 -112.706460 316 16491ft 368kts
25-Sep-21 18:17 34.622782 -112.768749 340 16820ft 364kts
25-Sep-21 18:18 34.720898 -112.789771 333 18794ft 355kts
25-Sep-21 18:19 34.738716 -112.886398 240 20887ft 324kts
25-Sep-21 18:20 34.721927 -112.990913 269 22895ft 325kts
25-Sep-21 18:21 34.738897 -113.096544 294 24896ft 320kts
25-Sep-21 18:22 34.778475 -113.191051 297 26876ft 309kts
25-Sep-21 18:23 34.816811 -113.281229 297 28853ft 291kts
25-Sep-21 18:24 34.853658 -113.368087 297 30141ft 294kts
25-Sep-21 18:25 34.891466 -113.457498 298 31300ft 300kts
25-Sep-21 18:26 34.929831 -113.548533 299 32356ft 305kts
25-Sep-21 18:27 34.968875 -113.641307 300 33356ft 310kts
25-Sep-21 18:28 35.008543 -113.735814 300 34259ft 315kts
25-Sep-21 18:29 35.048498 -113.831269 300 35114ft 318kts
25-Sep-21 18:30 35.088987 -113.928214 300 35896ft 322kts
25-Sep-21 18:31 35.129743 -114.026194 300 36618ft 326kts
25-Sep-21 18:32 35.171007 -114.125696 300 37322ft 329kts
25-Sep-21 18:33 35.212307 -114.225569 300 37895ft 334kts
25-Sep-21 18:34 35.255668 -114.330702 300 37858ft 359kts
25-Sep-21 18:35 35.301823 -114.443054 300 37786ft 382kts
25-Sep-21 18:36 35.350758 -114.562620 299 37934ft 396kts
25-Sep-21 18:37 35.400832 -114.685355 299 37946ft 412kts
25-Sep-21 18:38 35.455159 -114.811522 307 37958ft 421kts
25-Sep-21 18:39 35.503720 -114.893278 309 37975ft 426kts
25-Sep-21 18:40 35.574497 -115.010811 309 38002ft 431kts
25-Sep-21 18:41 35.645851 -115.129715 310 38005ft 431kts
25-Sep-21 18:42 35.716416 -115.247573 311 38009ft 427kts
25-Sep-21 18:43 35.786331 -115.364732 311 38009ft 424kts
25-Sep-21 18:44 35.855620 -115.481333 311 38008ft 421kts
25-Sep-21 18:45 35.924661 -115.597862 311 37993ft 420kts
25-Sep-21 18:46 35.993255 -115.714054 310 37975ft 418kts
25-Sep-21 18:47 36.061153 -115.829471 310 37999ft 415kts
25-Sep-21 18:48 36.128868 -115.944924 310 38019ft 414kts
25-Sep-21 18:49 36.196211 -116.060163 310 38020ft 414kts
25-Sep-21 18:50 36.263374 -116.175466 310 38020ft 414kts
25-Sep-21 18:51 36.339044 -116.280078 321 38021ft 407kts
25-Sep-21 18:52 36.420101 -116.377751 321 38021ft 407kts
25-Sep-21 18:53 36.501088 -116.475678 321 38021ft 407kts
25-Sep-21 18:54 36.582105 -116.573930 321 38022ft 407kts
25-Sep-21 18:55 36.670288 -116.658610 331 38016ft 400kts
25-Sep-21 18:56 36.762824 -116.735511 331 38015ft 399kts
25-Sep-21 18:57 36.854646 -116.812023 331 38039ft 398kts
25-Sep-21 18:58 36.946039 -116.888398 331 38128ft 395kts
25-Sep-21 18:59 37.037119 -116.964436 329 38153ft 393kts
25-Sep-21 19:00 37.127698 -117.040633 327 38156ft 392kts
25-Sep-21 19:01 37.217793 -117.116767 327 38158ft 391kts
25-Sep-21 19:02 37.306876 -117.194715 324 38156ft 390kts
25-Sep-21 19:03 37.393190 -117.276711 323 38157ft 389kts
25-Sep-21 19:04 37.478613 -117.359607 323 38156ft 389kts
25-Sep-21 19:05 37.564058 -117.442786 323 38149ft 388kts
25-Sep-21 19:06 37.649116 -117.525884 323 38156ft 388kts
25-Sep-21 19:07 37.734218 -117.609244 323 38151ft 387kts
25-Sep-21 19:08 37.819187 -117.692730 323 38116ft 388kts
25-Sep-21 19:09 37.904361 -117.776663 323 38081ft 388kts
25-Sep-21 19:10 37.989157 -117.860470 323 38081ft 388kts
25-Sep-21 19:11 38.073771 -117.944366 323 38110ft 386kts
25-Sep-21 19:12 38.158221 -118.028344 323 38097ft 387kts
25-Sep-21 19:13 38.243129 -118.113038 323 38072ft 388kts
25-Sep-21 19:14 38.327578 -118.197513 323 38075ft 388kts
25-Sep-21 19:15 38.412173 -118.282417 323 38073ft 388kts
25-Sep-21 19:16 38.496613 -118.367417 323 38070ft 388kts
25-Sep-21 19:17 38.581224 -118.452861 322 38073ft 388kts
25-Sep-21 19:18 38.665460 -118.538152 323 38069ft 388kts
25-Sep-21 19:19 38.749824 -118.623893 323 38072ft 388kts
25-Sep-21 19:20 38.834334 -118.709992 322 38073ft 388kts
25-Sep-21 19:21 38.918766 -118.796214 321 38070ft 388kts
25-Sep-21 19:22 39.002870 -118.882326 319 38050ft 388kts
25-Sep-21 19:23 39.087060 -118.969094 318 38045ft 388kts
25-Sep-21 19:24 39.170931 -119.055708 318 38048ft 387kts
25-Sep-21 19:25 39.235563 -119.161147 291 38087ft 378kts
25-Sep-21 19:26 39.273546 -119.287099 290 38131ft 377kts
25-Sep-21 19:27 39.310837 -119.413434 290 38135ft 377kts
25-Sep-21 19:28 39.347948 -119.539709 290 38133ft 377kts
25-Sep-21 19:29 39.384939 -119.666195 289 38110ft 378kts
25-Sep-21 19:30 39.422420 -119.794917 289 36816ft 389kts
25-Sep-21 19:31 39.459998 -119.924677 289 35294ft 386kts
25-Sep-21 19:32 39.497129 -120.053476 289 33381ft 384kts
25-Sep-21 19:35 39.589305 -120.376023 289 27800ft 375kts
25-Sep-21 19:36 39.641942 -120.562020 288 24886ft 361kts
25-Sep-21 19:37 39.676239 -120.684149 288 22818ft 356kts
25-Sep-21 19:38 39.709597 -120.803109 288 21027ft 347kts
25-Sep-21 19:39 39.742028 -120.919447 288 19314ft 339kts
25-Sep-21 19:40 39.773727 -121.033564 288 17601ft 334kts
25-Sep-21 19:41 39.805197 -121.147525 287 16220ft 338kts
25-Sep-21 19:42 39.836865 -121.262779 287 15184ft 337kts
25-Sep-21 19:43 39.868673 -121.379036 287 13928ft 350kts
25-Sep-21 19:44 39.902075 -121.501637 288 12616ft 364kts
25-Sep-21 19:45 39.935374 -121.624362 288 12021ft 353kts
25-Sep-21 19:46 39.967513 -121.743442 287 12014ft 344kts
25-Sep-21 19:47 39.997824 -121.856137 287 11315ft 296kts
25-Sep-21 19:48 40.024532 -121.956184 287 10023ft 296kts
25-Sep-21 19:49 40.051587 -122.057746 287 8534ft 297kts
25-Sep-21 19:50 40.078215 -122.158063 287 7075ft 284kts
25-Sep-21 19:51 40.120052 -122.236131 342 6997ft 273kts
25-Sep-21 19:52 40.196569 -122.244602 355 6020ft 280kts
25-Sep-21 19:53 40.273980 -122.251127 355 5013ft 275kts
25-Sep-21 19:54 40.347655 -122.254652 2 4998ft 258kts
25-Sep-21 19:55 40.418001 -122.243592 7 4998ft 252kts
25-Sep-21 19:56 40.486032 -122.230650 7 4857ft 226kts
25-Sep-21 19:57 40.537062 -122.220648 7 4522ft 151kts
25-Sep-21 19:58 40.577460 -122.212584 7 4113ft 153kts
25-Sep-21 19:59 40.620135 -122.204151 7 3802ft 156kts
25-Sep-21 20:00 40.650464 -122.227880 268 3805ft 153kts
25-Sep-21 20:01 40.661889 -122.281934 260 3743ft 154kts
25-Sep-21 20:02 40.624353 -122.295125 179 2845ft 157kts
25-Sep-21 20:03 40.584656 -122.294742 181 1960ft 135kts
25-Sep-21 20:04 40.549630 -122.294805 181 1191ft 117kts
25-Sep-21 20:05 40.517641 -122.294836 179 510ft 113kts
25-Sep-21 20:06 40.501471 -122.295150 233 493ft 19kts
25-Sep-21 20:07 40.503305 -122.297766 315 496ft 13kts
25-Sep-21 20:08 40.504892 -122.298993 312 496ft 0kts
25-Sep-21 20:09 40.504892 -122.298993 312 496ft 0kts

Navigation Log

Ident Type
Flight plan parsing failed, navigation log unavailable